createdAt,value
2019-05-17T00:01:37.581Z,35.70
2019-05-17T00:04:13.265Z,34.50
2019-05-17T00:06:41.102Z,34.80
2019-05-17T00:09:09.000Z,35.70
2019-05-17T00:11:36.982Z,35.00
2019-05-17T00:14:06.340Z,34.80
2019-05-17T00:16:34.320Z,36.00
2019-05-17T00:19:02.067Z,35.00
2019-05-17T00:21:30.284Z,36.20
2019-05-17T00:23:59.108Z,36.30
2019-05-17T00:26:28.552Z,35.90
2019-05-17T00:28:56.384Z,36.60
2019-05-17T00:31:26.283Z,36.70
2019-05-17T00:33:56.446Z,36.40
2019-05-17T00:36:26.771Z,36.50
2019-05-17T00:38:56.644Z,36.60
2019-05-17T00:41:26.874Z,36.90
2019-05-17T00:43:56.844Z,37.00
2019-05-17T00:46:26.654Z,37.30
2019-05-17T00:48:57.131Z,36.50
2019-05-17T00:51:27.235Z,37.50
2019-05-17T00:53:56.261Z,36.70
2019-05-17T00:56:26.471Z,37.40
2019-05-17T00:58:53.862Z,37.10
2019-05-17T01:01:21.668Z,37.70
2019-05-17T01:03:49.489Z,37.80
2019-05-17T01:06:17.194Z,37.80
2019-05-17T01:08:47.485Z,37.60
2019-05-17T01:11:16.542Z,37.80
2019-05-17T01:13:46.340Z,37.80
2019-05-17T01:16:13.820Z,38.10
2019-05-17T01:18:41.647Z,38.00
2019-05-17T01:21:09.340Z,38.30
2019-05-17T01:23:37.065Z,37.90
2019-05-17T01:26:07.322Z,38.70
2019-05-17T01:28:36.297Z,38.70
2019-05-17T01:31:06.480Z,38.40
2019-05-17T01:33:36.569Z,37.60
2019-05-17T01:36:06.786Z,38.80
2019-05-17T01:38:37.417Z,38.80
2019-05-17T01:41:06.832Z,38.50
2019-05-17T01:43:36.589Z,38.60
2019-05-17T01:46:03.999Z,39.70
2019-05-17T01:48:31.926Z,40.60
2019-05-17T01:50:59.677Z,40.30
2019-05-17T01:53:27.386Z,40.30
2019-05-17T01:55:56.787Z,40.60
2019-05-17T01:58:27.081Z,40.10
2019-05-17T02:00:57.397Z,40.30
2019-05-17T02:03:26.772Z,40.50
2019-05-17T02:05:56.620Z,40.30
2019-05-17T02:08:26.463Z,40.70
2019-05-17T02:10:54.364Z,41.20
2019-05-17T02:13:22.202Z,41.50
2019-05-17T02:15:50.161Z,41.40
2019-05-17T02:18:17.906Z,42.70
2019-05-17T02:20:46.416Z,42.70
2019-05-17T02:23:14.529Z,42.50
2019-05-17T02:25:42.259Z,43.20
2019-05-17T02:28:12.171Z,43.20
2019-05-17T02:30:43.882Z,43.90
2019-05-17T02:33:12.665Z,43.80
2019-05-17T02:35:42.896Z,44.30
2019-05-17T02:38:13.017Z,43.60
2019-05-17T02:40:42.842Z,43.50
2019-05-17T02:43:09.405Z,43.60
2019-05-17T02:45:37.279Z,44.00
2019-05-17T02:48:04.986Z,43.70
2019-05-17T02:50:36.252Z,44.30
2019-05-17T02:53:04.846Z,44.50
2019-05-17T02:55:32.761Z,44.90
2019-05-17T02:58:02.903Z,45.20
2019-05-17T03:00:33.865Z,45.30
2019-05-17T03:03:02.988Z,45.90
2019-05-17T03:05:29.616Z,46.20
2019-05-17T03:07:57.415Z,46.00
2019-05-17T03:10:29.028Z,45.90
2019-05-17T03:12:54.843Z,45.90
2019-05-17T03:15:23.559Z,45.70
2019-05-17T03:17:53.676Z,45.70
2019-05-17T03:20:23.322Z,45.80
2019-05-17T03:22:52.533Z,45.10
2019-05-17T03:25:23.617Z,45.50
2019-05-17T03:27:53.364Z,45.50
2019-05-17T03:30:25.298Z,45.40
2019-05-17T03:32:55.564Z,45.70
2019-05-17T03:35:25.724Z,46.10
2019-05-17T03:37:52.907Z,46.50
2019-05-17T03:40:43.649Z,46.60
2019-05-17T03:42:49.174Z,46.60
2019-05-17T03:45:16.911Z,46.30
2019-05-17T03:47:45.027Z,46.60
2019-05-17T03:50:13.744Z,46.50
2019-05-17T03:52:44.442Z,46.10
2019-05-17T03:55:13.124Z,46.10
2019-05-17T03:57:44.179Z,47.10
2019-05-17T04:00:15.198Z,47.50
2019-05-17T04:02:44.549Z,47.50
2019-05-17T04:05:13.028Z,47.60
2019-05-17T04:07:43.496Z,47.90
2019-05-17T04:10:14.622Z,46.20
2019-05-17T04:12:43.641Z,46.30
2019-05-17T04:15:13.459Z,46.10
2019-05-17T04:17:43.831Z,46.10
2019-05-17T04:20:13.493Z,46.30
2019-05-17T04:22:44.115Z,46.10
2019-05-17T04:25:13.417Z,47.00
2019-05-17T04:27:43.529Z,47.20
2019-05-17T04:30:12.557Z,46.70
2019-05-17T04:32:43.594Z,46.40
2019-05-17T04:35:13.020Z,46.40
2019-05-17T04:37:40.069Z,46.40
2019-05-17T04:40:08.266Z,46.10
2019-05-17T04:42:36.520Z,46.40
2019-05-17T04:45:05.072Z,45.60
2019-05-17T04:47:33.563Z,45.90
2019-05-17T04:50:03.930Z,45.80
2019-05-17T04:52:33.651Z,44.30
2019-05-17T04:55:04.165Z,45.20
2019-05-17T04:57:32.543Z,44.60
2019-05-17T05:00:03.827Z,45.30
2019-05-17T05:02:33.171Z,45.00
2019-05-17T05:05:03.349Z,44.90
2019-05-17T05:07:33.590Z,45.00
2019-05-17T05:10:02.965Z,44.60
2019-05-17T05:12:33.538Z,45.00
2019-05-17T05:15:03.583Z,44.90
2019-05-17T05:17:32.986Z,45.00
2019-05-17T05:20:02.824Z,44.70
2019-05-17T05:22:32.969Z,44.70
2019-05-17T05:25:02.143Z,44.00
2019-05-17T05:27:31.628Z,44.20
2019-05-17T05:29:59.989Z,43.00
2019-05-17T05:32:27.736Z,43.00
2019-05-17T05:34:55.641Z,42.80
2019-05-17T05:37:23.490Z,42.30
2019-05-17T05:39:54.428Z,42.20
2019-05-17T05:42:22.193Z,42.20
2019-05-17T05:44:52.258Z,41.40
2019-05-17T05:47:22.067Z,41.80
2019-05-17T05:49:51.913Z,40.60
2019-05-17T05:52:21.898Z,40.90
2019-05-17T05:54:51.924Z,40.70
2019-05-17T05:57:21.853Z,39.80
2019-05-17T05:59:51.824Z,39.50
2019-05-17T06:02:21.790Z,39.40
2019-05-17T06:04:51.686Z,38.80
2019-05-17T06:07:21.471Z,38.90
2019-05-17T06:09:51.756Z,38.70
2019-05-17T06:12:24.752Z,38.30
2019-05-17T06:14:49.408Z,38.00
2019-05-17T06:17:17.270Z,37.60
2019-05-17T06:19:44.947Z,37.20
2019-05-17T06:22:12.845Z,37.20
2019-05-17T06:24:42.698Z,36.10
2019-05-17T06:27:12.364Z,35.30
2019-05-17T06:29:41.510Z,35.80
2019-05-17T06:32:11.901Z,36.00
2019-05-17T06:34:42.058Z,35.00
2019-05-17T06:37:09.564Z,33.70
2019-05-17T06:39:37.264Z,33.90
2019-05-17T06:42:05.182Z,34.00
2019-05-17T06:44:33.581Z,33.80
2019-05-17T06:47:02.646Z,33.60
2019-05-17T06:49:31.806Z,33.00
2019-05-17T06:52:02.342Z,31.70
2019-05-17T06:54:29.963Z,31.50
2019-05-17T06:57:03.081Z,30.80
2019-05-17T06:59:30.942Z,30.70
2019-05-17T07:01:59.735Z,29.40
2019-05-17T07:04:29.894Z,29.10
2019-05-17T07:07:15.470Z,29.20
2019-05-17T07:09:44.388Z,29.00
2019-05-17T07:12:12.274Z,27.60
2019-05-17T07:14:40.180Z,26.80
2019-05-17T07:17:10.064Z,27.30
2019-05-17T07:19:40.044Z,26.70
2019-05-17T07:22:09.559Z,26.80
2019-05-17T07:24:39.712Z,26.10
2019-05-17T07:27:07.322Z,26.80
2019-05-17T07:29:35.108Z,26.50
2019-05-17T07:32:02.814Z,26.50
2019-05-17T07:34:30.935Z,25.40
2019-05-17T07:36:59.760Z,25.80
2019-05-17T07:39:29.524Z,26.20
2019-05-17T07:41:59.873Z,25.80
2019-05-17T07:44:29.515Z,25.50
2019-05-17T07:46:57.526Z,25.70
2019-05-17T07:49:25.247Z,24.10
2019-05-17T07:51:53.058Z,24.40
2019-05-17T07:54:20.894Z,24.00
2019-05-17T07:56:50.568Z,24.00
2019-05-17T07:59:19.976Z,22.80
2019-05-17T08:01:50.212Z,22.60
2019-05-17T08:04:20.490Z,22.70
2019-05-17T08:06:50.555Z,22.80
2019-05-17T08:09:20.451Z,22.60
2019-05-17T08:11:50.206Z,22.00
2019-05-17T08:14:29.362Z,22.20
2019-05-17T08:16:50.071Z,22.00
2019-05-17T08:19:17.618Z,21.40
2019-05-17T08:21:45.471Z,20.90
2019-05-17T08:24:13.262Z,20.80
2019-05-17T08:26:41.948Z,21.10
2019-05-17T08:29:10.037Z,20.60
2019-05-17T08:31:40.197Z,20.50
2019-05-17T08:34:10.211Z,20.60
2019-05-17T08:36:37.436Z,20.20
2019-05-17T08:39:06.279Z,20.10
2019-05-17T08:41:34.074Z,20.30
2019-05-17T08:44:02.156Z,19.50
2019-05-17T08:46:30.595Z,19.60
2019-05-17T08:49:00.284Z,19.50
2019-05-17T08:51:30.316Z,19.40
2019-05-17T08:54:00.026Z,19.50
2019-05-17T08:56:27.910Z,19.30
2019-05-17T08:58:55.615Z,19.30
2019-05-17T09:01:23.584Z,18.80
2019-05-17T09:03:51.530Z,19.30
2019-05-17T09:06:19.940Z,18.90
2019-05-17T09:08:49.910Z,18.30
2019-05-17T09:11:19.545Z,18.90
2019-05-17T09:13:57.220Z,18.90
2019-05-17T09:16:19.541Z,18.90
2019-05-17T09:18:47.152Z,18.70
2019-05-17T09:21:15.251Z,19.10
2019-05-17T09:23:43.477Z,18.70
2019-05-17T09:26:11.573Z,19.70
2019-05-17T09:28:39.572Z,20.00
2019-05-17T09:31:10.226Z,18.60
2019-05-17T09:33:37.650Z,19.10
2019-05-17T09:36:06.524Z,19.00
2019-05-17T09:38:34.391Z,18.50
2019-05-17T09:41:02.141Z,18.20
2019-05-17T09:43:30.052Z,17.90
2019-05-17T09:45:58.047Z,17.90
2019-05-17T09:48:25.807Z,17.50
2019-05-17T09:50:54.102Z,18.00
2019-05-17T09:53:22.677Z,17.80
2019-05-17T09:55:50.414Z,17.90
2019-05-17T09:58:21.421Z,18.10
2019-05-17T10:00:49.608Z,18.50
2019-05-17T10:03:23.265Z,17.80
2019-05-17T10:05:49.534Z,17.60
2019-05-17T10:08:19.307Z,17.90
2019-05-17T10:11:04.229Z,16.80
2019-05-17T10:13:21.445Z,17.00
2019-05-17T10:15:50.012Z,16.80
2019-05-17T10:18:20.005Z,16.60
2019-05-17T10:20:50.478Z,16.70
2019-05-17T10:23:19.679Z,16.60
2019-05-17T10:25:47.534Z,15.40
2019-05-17T10:28:15.295Z,15.50
2019-05-17T10:30:43.136Z,14.90
2019-05-17T10:33:11.390Z,14.60
2019-05-17T10:35:40.744Z,14.60
2019-05-17T10:38:10.335Z,14.30
2019-05-17T10:40:40.819Z,15.20
2019-05-17T10:43:10.041Z,14.90
2019-05-17T10:45:40.917Z,15.20
2019-05-17T10:48:10.202Z,15.60
2019-05-17T10:50:40.753Z,15.70
2019-05-17T10:53:10.055Z,15.70
2019-05-17T10:55:39.678Z,15.30
2019-05-17T10:58:10.072Z,15.60
2019-05-17T11:00:37.712Z,15.60
2019-05-17T11:03:05.945Z,15.90
2019-05-17T11:05:33.723Z,15.60
2019-05-17T11:08:03.534Z,14.80
2019-05-17T11:10:31.880Z,15.10
2019-05-17T11:12:59.748Z,14.90
2019-05-17T11:15:29.395Z,14.80
2019-05-17T11:17:57.266Z,14.80
2019-05-17T11:20:25.028Z,14.00
2019-05-17T11:22:54.554Z,14.20
2019-05-17T11:25:22.312Z,13.00
2019-05-17T11:27:52.802Z,13.50
2019-05-17T11:30:21.062Z,14.10
2019-05-17T11:32:48.837Z,13.70
2019-05-17T11:35:17.375Z,13.90
2019-05-17T11:37:46.989Z,14.50
2019-05-17T11:40:16.589Z,14.20
2019-05-17T11:42:46.431Z,14.20
2019-05-17T11:45:26.772Z,14.90
2019-05-17T11:47:45.890Z,15.10
2019-05-17T11:50:14.342Z,15.60
2019-05-17T11:52:43.653Z,15.10
2019-05-17T11:55:12.853Z,14.50
2019-05-17T11:57:40.641Z,15.10
2019-05-17T12:00:12.427Z,15.40
2019-05-17T12:02:42.197Z,15.30
2019-05-17T12:05:10.192Z,15.60
2019-05-17T12:07:38.083Z,14.60
2019-05-17T12:10:08.008Z,15.00
2019-05-17T12:12:36.222Z,15.40
2019-05-17T12:15:06.946Z,15.00
2019-05-17T12:17:34.693Z,15.50
2019-05-17T12:20:02.754Z,15.60
2019-05-17T12:22:32.560Z,16.00
2019-05-17T12:25:00.287Z,16.10
2019-05-17T12:27:29.135Z,16.80
2019-05-17T12:29:56.919Z,17.20
2019-05-17T12:32:25.243Z,17.70
2019-05-17T12:34:53.981Z,17.00
2019-05-17T12:37:23.574Z,17.60
2019-05-17T12:39:52.554Z,17.30
2019-05-17T12:42:21.596Z,17.30
2019-05-17T12:44:49.362Z,17.70
2019-05-17T12:47:17.550Z,18.10
2019-05-17T12:49:45.463Z,17.80
2019-05-17T12:52:13.391Z,17.40
2019-05-17T12:54:41.506Z,17.30
2019-05-17T12:57:09.286Z,16.50
2019-05-17T12:59:37.252Z,16.00
2019-05-17T13:02:05.254Z,15.70
2019-05-17T13:04:33.081Z,15.80
2019-05-17T13:07:01.075Z,15.60
2019-05-17T13:09:29.364Z,15.10
2019-05-17T13:11:58.938Z,15.70
2019-05-17T13:14:26.707Z,15.70
2019-05-17T13:16:54.706Z,15.80
2019-05-17T13:19:25.253Z,15.70
2019-05-17T13:21:52.238Z,16.10
2019-05-17T13:24:20.131Z,17.20
2019-05-17T13:26:47.907Z,17.70
2019-05-17T13:29:15.860Z,17.20
2019-05-17T13:31:44.032Z,17.50
2019-05-17T13:34:13.557Z,17.90
2019-05-17T13:36:41.280Z,18.20
2019-05-17T13:39:09.449Z,17.80
2019-05-17T13:41:37.592Z,17.90
2019-05-17T13:44:06.169Z,17.60
2019-05-17T13:46:34.107Z,16.10
2019-05-17T13:49:02.075Z,15.70
2019-05-17T13:51:30.746Z,15.80
2019-05-17T13:54:00.283Z,16.00
2019-05-17T13:56:28.019Z,15.60
2019-05-17T13:58:56.385Z,15.70
2019-05-17T14:01:24.455Z,16.40
2019-05-17T14:03:52.390Z,16.90
2019-05-17T14:06:20.559Z,16.80
2019-05-17T14:08:48.380Z,17.00
2019-05-17T14:11:16.276Z,17.60
2019-05-17T14:13:44.047Z,17.30
2019-05-17T14:16:12.040Z,17.70
2019-05-17T14:18:39.897Z,17.30
2019-05-17T14:21:07.967Z,16.40
2019-05-17T14:23:37.487Z,16.70
2019-05-17T14:26:05.306Z,16.60
2019-05-17T14:28:35.730Z,18.10
2019-05-17T14:31:03.680Z,17.40
2019-05-17T14:33:31.425Z,17.30
2019-05-17T14:35:59.195Z,17.70
2019-05-17T14:38:27.189Z,17.80
2019-05-17T14:41:10.417Z,18.00
2019-05-17T14:43:24.931Z,18.20
2019-05-17T14:45:53.354Z,18.20
2019-05-17T14:48:21.465Z,17.80
2019-05-17T14:50:49.827Z,18.80
2019-05-17T14:53:17.785Z,18.50
2019-05-17T14:55:47.346Z,18.80
2019-05-17T14:58:15.790Z,18.80
2019-05-17T15:00:43.577Z,19.50
2019-05-17T15:03:11.338Z,19.70
2019-05-17T15:05:39.325Z,19.90
2019-05-17T15:08:07.181Z,20.10
2019-05-17T15:10:34.900Z,20.20
2019-05-17T15:13:02.741Z,20.90
2019-05-17T15:15:30.682Z,20.90
2019-05-17T15:17:58.873Z,21.10
2019-05-17T15:20:26.742Z,21.30
2019-05-17T15:22:54.989Z,21.10
2019-05-17T15:25:23.992Z,21.90
2019-05-17T15:27:51.726Z,22.20
2019-05-17T15:30:19.579Z,22.20
2019-05-17T15:32:47.929Z,22.20
2019-05-17T15:35:15.727Z,22.50
2019-05-17T15:37:43.796Z,23.20
2019-05-17T15:40:12.027Z,23.50
2019-05-17T15:42:44.536Z,22.90
2019-05-17T15:45:10.919Z,22.40
2019-05-17T15:47:38.941Z,23.40
2019-05-17T15:50:07.492Z,23.60
2019-05-17T15:52:35.793Z,23.10
2019-05-17T15:55:05.223Z,23.80
2019-05-17T15:57:33.029Z,23.70
2019-05-17T16:00:01.284Z,23.70
2019-05-17T16:02:29.028Z,23.50
2019-05-17T16:04:58.606Z,23.60
2019-05-17T16:07:26.612Z,23.30
2019-05-17T16:09:54.343Z,23.40
2019-05-17T16:12:22.133Z,22.70
2019-05-17T16:14:51.750Z,23.90
2019-05-17T16:17:19.865Z,23.60
2019-05-17T16:19:48.223Z,23.90
2019-05-17T16:22:17.440Z,23.70
2019-05-17T16:24:45.191Z,24.30
2019-05-17T16:27:13.055Z,23.80
2019-05-17T16:29:42.755Z,23.40
2019-05-17T16:32:10.515Z,24.10
2019-05-17T16:34:38.409Z,24.80
2019-05-17T16:37:06.126Z,24.10
2019-05-17T16:39:34.355Z,24.20
2019-05-17T16:42:03.834Z,23.90
2019-05-17T16:44:31.773Z,24.70
2019-05-17T16:46:59.520Z,24.90
2019-05-17T16:49:28.560Z,24.40
2019-05-17T16:51:56.683Z,25.00
2019-05-17T16:54:24.427Z,24.90
2019-05-17T16:56:52.325Z,25.60
2019-05-17T16:59:20.692Z,25.80
2019-05-17T17:01:48.441Z,26.20
2019-05-17T17:04:16.350Z,26.40
2019-05-17T17:06:50.666Z,26.50
2019-05-17T17:09:18.536Z,26.00
2019-05-17T17:11:46.738Z,26.30
2019-05-17T17:14:14.693Z,26.50
2019-05-17T17:16:42.514Z,26.30
2019-05-17T17:19:10.661Z,26.00
2019-05-17T17:21:38.862Z,26.50
2019-05-17T17:24:06.898Z,26.50
2019-05-17T17:26:35.591Z,26.30
2019-05-17T17:29:03.921Z,26.30
2019-05-17T17:31:31.941Z,26.70
2019-05-17T17:34:00.001Z,26.50
2019-05-17T17:36:27.760Z,26.70
2019-05-17T17:38:55.491Z,26.70
2019-05-17T17:41:26.662Z,27.20
2019-05-17T17:43:58.399Z,26.90
2019-05-17T17:46:24.544Z,27.00
2019-05-17T17:48:54.233Z,27.10
2019-05-17T17:51:23.195Z,27.20
2019-05-17T17:53:50.951Z,27.00
2019-05-17T17:56:20.684Z,26.90
2019-05-17T17:58:51.059Z,26.40
2019-05-17T18:01:18.808Z,26.80
2019-05-17T18:03:47.067Z,27.70
2019-05-17T18:06:15.265Z,27.60
2019-05-17T18:08:42.973Z,27.20
2019-05-17T18:11:10.745Z,28.20
2019-05-17T18:13:38.962Z,27.60
2019-05-17T18:16:06.954Z,28.00
2019-05-17T18:18:34.690Z,28.20
2019-05-17T18:21:02.425Z,28.40
2019-05-17T18:23:30.295Z,28.40
2019-05-17T18:25:59.164Z,28.40
2019-05-17T18:28:26.930Z,29.10
2019-05-17T18:30:54.892Z,29.00
2019-05-17T18:33:22.914Z,29.20
2019-05-17T18:35:51.552Z,29.80
2019-05-17T18:38:23.286Z,29.50
2019-05-17T18:40:51.033Z,29.80
2019-05-17T18:43:18.764Z,30.10
2019-05-17T18:45:47.833Z,30.20
2019-05-17T18:48:15.709Z,30.00
2019-05-17T18:50:43.605Z,30.60
2019-05-17T18:53:16.691Z,30.80
2019-05-17T18:55:41.283Z,30.40
2019-05-17T18:58:09.694Z,30.90
2019-05-17T19:00:37.643Z,31.80
2019-05-17T19:03:05.536Z,31.10
2019-05-17T19:05:33.348Z,31.50
2019-05-17T19:08:01.097Z,31.20
2019-05-17T19:10:29.696Z,31.60
2019-05-17T19:12:57.615Z,31.80
2019-05-17T19:15:25.773Z,32.30
2019-05-17T19:17:55.352Z,32.70
2019-05-17T19:20:23.131Z,31.90
2019-05-17T19:22:51.146Z,32.80
2019-05-17T19:25:19.028Z,32.00
2019-05-17T19:27:48.104Z,34.30
2019-05-17T19:30:16.373Z,33.30
2019-05-17T19:32:44.136Z,33.30
2019-05-17T19:35:14.308Z,34.20
2019-05-17T19:37:42.052Z,34.00
2019-05-17T19:40:11.972Z,34.20
2019-05-17T19:42:39.740Z,34.50
2019-05-17T19:45:08.895Z,34.60
2019-05-17T19:47:37.176Z,33.70
2019-05-17T19:50:05.213Z,34.50
2019-05-17T19:52:33.001Z,35.40
2019-05-17T19:55:00.957Z,35.80
2019-05-17T19:57:28.842Z,35.60
2019-05-17T19:59:58.602Z,35.90
2019-05-17T20:02:26.735Z,35.60
2019-05-17T20:04:54.530Z,36.10
2019-05-17T20:07:24.233Z,37.10
2019-05-17T20:09:52.441Z,36.40
2019-05-17T20:12:20.226Z,36.90
2019-05-17T20:14:48.520Z,37.70
2019-05-17T20:17:16.485Z,37.40
2019-05-17T20:19:44.628Z,38.30
2019-05-17T20:22:12.745Z,38.50
2019-05-17T20:24:40.833Z,38.30
2019-05-17T20:27:08.594Z,38.20
2019-05-17T20:29:36.574Z,39.20
2019-05-17T20:32:04.427Z,39.20
2019-05-17T20:34:32.290Z,40.20
2019-05-17T20:37:00.017Z,40.60
2019-05-17T20:39:27.943Z,40.90
2019-05-17T20:41:57.531Z,41.20
2019-05-17T20:44:25.654Z,41.80
2019-05-17T20:46:53.599Z,42.00
2019-05-17T20:49:21.360Z,42.20
2019-05-17T20:51:51.009Z,42.90
2019-05-17T20:54:19.306Z,42.50
2019-05-17T20:56:49.039Z,42.80
2019-05-17T20:59:17.017Z,43.70
2019-05-17T21:01:45.261Z,43.80
2019-05-17T21:04:14.374Z,43.80
2019-05-17T21:06:42.107Z,44.10
2019-05-17T21:09:10.271Z,44.30
2019-05-17T21:11:38.218Z,43.50
2019-05-17T21:14:05.970Z,44.40
2019-05-17T21:16:33.837Z,44.70
2019-05-17T21:19:01.853Z,44.50
2019-05-17T21:21:29.700Z,44.90
2019-05-17T21:24:01.976Z,45.10
2019-05-17T21:26:33.118Z,45.00
2019-05-17T21:29:00.984Z,44.30
2019-05-17T21:31:28.902Z,45.00
2019-05-17T21:33:56.642Z,45.20
2019-05-17T21:36:24.368Z,44.20
2019-05-17T21:38:52.342Z,45.40
2019-05-17T21:41:20.078Z,44.50
2019-05-17T21:43:49.710Z,45.30
2019-05-17T21:46:19.404Z,46.60
2019-05-17T21:48:47.217Z,46.80
2019-05-17T21:51:15.090Z,46.70
2019-05-17T21:53:43.570Z,47.20
2019-05-17T21:56:13.082Z,47.40
2019-05-17T21:58:41.020Z,47.60
2019-05-17T22:01:13.797Z,47.20
2019-05-17T22:03:41.860Z,47.80
2019-05-17T22:06:11.022Z,47.00
2019-05-17T22:08:38.736Z,48.20
2019-05-17T22:11:06.603Z,47.50
2019-05-17T22:13:35.987Z,48.30
2019-05-17T22:16:18.498Z,48.50
2019-05-17T22:18:33.930Z,48.70
2019-05-17T22:21:02.092Z,48.60
2019-05-17T22:23:29.835Z,48.70
2019-05-17T22:25:58.124Z,49.00
2019-05-17T22:28:26.905Z,49.30
2019-05-17T22:30:55.545Z,49.60
2019-05-17T22:33:23.288Z,50.40
2019-05-17T22:35:51.049Z,50.30
2019-05-17T22:38:18.924Z,50.90
2019-05-17T22:40:47.730Z,51.50
2019-05-17T22:43:18.294Z,51.90
2019-05-17T22:45:46.222Z,53.40
2019-05-17T22:48:16.153Z,54.10
2019-05-17T22:50:45.133Z,54.10
2019-05-17T22:53:12.966Z,54.10
2019-05-17T22:55:40.785Z,53.20
2019-05-17T22:58:08.747Z,55.10
2019-05-17T23:00:36.463Z,55.80
2019-05-17T23:03:04.427Z,56.30
2019-05-17T23:05:33.143Z,56.50
2019-05-17T23:08:02.609Z,56.60
2019-05-17T23:10:35.002Z,56.40
2019-05-17T23:13:01.507Z,56.50
2019-05-17T23:15:32.339Z,56.90
2019-05-17T23:18:00.249Z,58.20
2019-05-17T23:20:28.299Z,58.10
2019-05-17T23:22:56.080Z,57.80
2019-05-17T23:25:23.801Z,58.60
2019-05-17T23:27:51.922Z,58.70
2019-05-17T23:30:19.624Z,59.00
2019-05-17T23:32:49.140Z,59.30
2019-05-17T23:35:17.092Z,59.70
2019-05-17T23:37:44.925Z,60.00
2019-05-17T23:40:13.545Z,60.10
2019-05-17T23:42:41.254Z,60.00
2019-05-17T23:45:09.785Z,60.50
2019-05-17T23:47:37.514Z,60.70
2019-05-17T23:50:05.794Z,60.60
2019-05-17T23:52:33.872Z,60.00
2019-05-17T23:55:04.430Z,60.90
2019-05-17T23:57:32.178Z,61.20
